createdAt,value
2018-07-05T00:00:56.445Z,6.80
2018-07-05T01:25:54.650Z,6.80
2018-07-05T01:28:36.781Z,6.63
2018-07-05T01:31:19.337Z,7.20
2018-07-05T01:34:02.950Z,7.23
2018-07-05T01:36:45.740Z,6.43
2018-07-05T01:39:34.328Z,7.53
2018-07-05T01:42:15.115Z,7.30
2018-07-05T01:45:09.483Z,7.03
2018-07-05T01:47:52.933Z,7.50
2018-07-05T01:50:34.736Z,7.87
2018-07-05T01:53:16.944Z,6.93
2018-07-05T01:56:01.016Z,7.70
2018-07-05T01:58:37.181Z,7.90
2018-07-05T02:01:17.920Z,8.13
2018-07-05T02:04:00.750Z,8.20
2018-07-05T02:06:42.166Z,7.67
2018-07-05T02:09:25.811Z,7.33
2018-07-05T02:12:08.421Z,7.60
2018-07-05T02:14:51.612Z,8.40
2018-07-05T02:17:32.389Z,8.50
2018-07-05T02:20:08.390Z,8.27
2018-07-05T02:22:51.474Z,9.40
2018-07-05T02:25:32.499Z,7.00
2018-07-05T02:28:16.411Z,8.30
2018-07-05T02:30:56.500Z,8.93
2018-07-05T02:33:38.997Z,8.60
2018-07-05T02:36:19.994Z,7.90
2018-07-05T02:39:05.364Z,8.30
2018-07-05T02:41:45.396Z,7.93
2018-07-05T02:44:28.105Z,8.07
2018-07-05T02:47:10.404Z,7.80
2018-07-05T02:49:53.825Z,8.27
2018-07-05T02:52:34.929Z,8.50
2018-07-05T02:55:15.762Z,9.23
2018-07-05T02:58:00.936Z,7.67
2018-07-05T03:00:47.264Z,8.37
2018-07-05T03:03:30.774Z,8.80
2018-07-05T03:06:16.437Z,8.77
2018-07-05T03:08:59.758Z,8.50
2018-07-05T03:11:44.971Z,8.57
2018-07-05T03:14:28.173Z,7.80
2018-07-05T03:17:09.057Z,8.37
2018-07-05T03:19:49.952Z,8.70
2018-07-05T03:22:35.429Z,8.93
2018-07-05T03:25:15.902Z,8.73
2018-07-05T03:28:01.741Z,9.37
2018-07-05T03:30:43.203Z,9.77
2018-07-05T03:33:25.191Z,8.67
2018-07-05T03:36:07.324Z,9.30
2018-07-05T03:38:47.425Z,10.30
2018-07-05T03:41:26.411Z,10.17
2018-07-05T03:44:08.445Z,9.53
2018-07-05T03:46:50.560Z,10.70
2018-07-05T03:49:31.934Z,10.23
2018-07-05T03:52:15.576Z,9.93
2018-07-05T03:54:59.656Z,10.53
2018-07-05T03:57:42.092Z,10.37
2018-07-05T04:00:26.686Z,9.90
2018-07-05T04:03:07.441Z,9.77
2018-07-05T04:05:53.740Z,9.00
2018-07-05T04:08:35.762Z,9.03
2018-07-05T04:11:15.629Z,9.80
2018-07-05T04:14:01.793Z,9.43
2018-07-05T04:16:45.384Z,8.00
2018-07-05T04:19:25.723Z,8.17
2018-07-05T04:22:09.661Z,8.13
2018-07-05T04:24:50.661Z,8.30
2018-07-05T04:27:33.594Z,8.73
2018-07-05T04:30:14.069Z,9.17
2018-07-05T04:33:00.575Z,10.03
2018-07-05T04:35:42.606Z,10.70
2018-07-05T04:38:27.574Z,11.97
2018-07-05T04:41:09.367Z,11.73
2018-07-05T04:43:52.035Z,11.67
2018-07-05T04:46:33.473Z,12.57
2018-07-05T04:49:13.281Z,12.93
2018-07-05T04:51:53.528Z,13.60
2018-07-05T04:54:34.757Z,14.47
2018-07-05T04:57:17.043Z,13.07
2018-07-05T04:59:57.806Z,14.47
2018-07-05T05:02:41.695Z,11.67
2018-07-05T05:05:26.484Z,13.43
2018-07-05T05:08:07.648Z,14.37
2018-07-05T05:10:48.561Z,11.67
2018-07-05T05:13:31.481Z,16.20
2018-07-05T05:16:14.948Z,15.70
2018-07-05T05:18:58.766Z,14.20
2018-07-05T05:21:40.547Z,14.27
2018-07-05T05:24:22.519Z,15.80
2018-07-05T05:27:06.185Z,12.10
2018-07-05T05:29:53.439Z,12.73
2018-07-05T05:32:33.749Z,15.23
2018-07-05T05:35:15.756Z,13.67
2018-07-05T05:37:57.165Z,14.27
2018-07-05T05:40:39.552Z,15.87
2018-07-05T05:43:20.933Z,15.67
2018-07-05T05:46:04.125Z,15.10
2018-07-05T05:48:50.301Z,13.77
2018-07-05T05:51:32.997Z,13.77
2018-07-05T05:54:15.944Z,13.80
2018-07-05T05:56:55.794Z,13.70
2018-07-05T05:59:35.603Z,16.43
2018-07-05T06:02:15.312Z,13.00
2018-07-05T06:04:55.087Z,12.87
2018-07-05T06:07:34.785Z,11.33
2018-07-05T06:10:14.649Z,12.77
2018-07-05T06:12:54.239Z,13.17
2018-07-05T06:15:33.963Z,13.97
2018-07-05T06:18:13.743Z,13.13
2018-07-05T06:20:53.522Z,12.03
2018-07-05T06:23:33.576Z,11.70
2018-07-05T06:26:13.406Z,12.27
2018-07-05T06:28:53.062Z,11.60
2018-07-05T06:31:33.021Z,13.67
2018-07-05T06:34:13.002Z,12.43
2018-07-05T06:36:52.795Z,11.40
2018-07-05T06:39:32.832Z,10.53
2018-07-05T06:42:12.713Z,11.03
2018-07-05T06:44:52.418Z,11.03
2018-07-05T06:47:32.261Z,12.67
2018-07-05T06:50:12.121Z,12.00
2018-07-05T06:52:51.849Z,11.23
2018-07-05T06:55:31.989Z,11.17
2018-07-05T06:58:11.593Z,12.13
2018-07-05T07:00:51.224Z,12.50
2018-07-05T07:03:30.894Z,12.87
2018-07-05T07:06:10.601Z,13.07
2018-07-05T07:08:50.177Z,12.53
2018-07-05T07:11:29.897Z,13.83
2018-07-05T07:14:09.552Z,13.00
2018-07-05T07:16:49.327Z,14.40
2018-07-05T07:19:28.970Z,13.57
2018-07-05T07:22:08.707Z,14.40
2018-07-05T07:24:48.411Z,13.57
2018-07-05T07:27:28.065Z,12.13
2018-07-05T07:30:07.794Z,13.47
2018-07-05T07:32:47.463Z,13.13
2018-07-05T07:35:27.161Z,15.07
2018-07-05T07:38:06.809Z,13.43
2018-07-05T07:40:46.498Z,14.37
2018-07-05T07:43:13.873Z,15.17
2018-07-05T07:45:41.200Z,14.60
2018-07-05T07:48:08.485Z,13.43
2018-07-05T07:50:35.885Z,15.13
2018-07-05T07:53:03.216Z,14.53
2018-07-05T07:55:30.522Z,13.47
2018-07-05T07:57:57.866Z,15.70
2018-07-05T08:00:25.261Z,15.67
2018-07-05T08:02:52.640Z,15.63
2018-07-05T08:05:20.026Z,14.57
2018-07-05T08:07:47.358Z,13.40
2018-07-05T08:10:14.724Z,15.43
2018-07-05T08:12:42.044Z,15.20
2018-07-05T08:15:09.455Z,13.97
2018-07-05T08:17:36.761Z,13.83
2018-07-05T08:20:04.067Z,16.07
2018-07-05T08:22:31.389Z,16.23
2018-07-05T08:24:58.748Z,15.40
2018-07-05T08:27:26.098Z,16.47
2018-07-05T08:29:53.404Z,15.50
2018-07-05T08:32:20.710Z,17.03
2018-07-05T08:34:48.131Z,18.20
2018-07-05T08:37:15.507Z,16.83
2018-07-05T08:39:42.927Z,17.87
2018-07-05T08:42:10.270Z,17.73
2018-07-05T08:44:37.613Z,17.60
2018-07-05T08:47:04.914Z,18.37
2018-07-05T08:49:32.264Z,17.60
2018-07-05T08:51:59.654Z,16.70
2018-07-05T08:54:26.970Z,16.87
2018-07-05T08:56:54.293Z,16.30
2018-07-05T08:59:21.618Z,16.80
2018-07-05T09:01:48.940Z,17.40
2018-07-05T09:04:16.286Z,17.53
2018-07-05T09:06:43.585Z,16.20
2018-07-05T09:09:10.958Z,17.07
2018-07-05T09:11:38.387Z,19.13
2018-07-05T09:14:05.697Z,18.90
2018-07-05T09:16:33.081Z,20.80
2018-07-05T09:19:00.369Z,20.40
2018-07-05T09:21:28.085Z,18.03
2018-07-05T09:23:55.377Z,20.60
2018-07-05T09:26:22.991Z,19.10
2018-07-05T09:28:50.604Z,18.30
2018-07-05T09:31:17.924Z,18.63
2018-07-05T09:33:45.873Z,17.03
2018-07-05T09:36:13.304Z,18.07
2018-07-05T09:38:40.799Z,17.37
2018-07-05T09:41:08.178Z,21.60
2018-07-05T09:43:36.008Z,23.77
2018-07-05T09:46:03.594Z,22.27
2018-07-05T09:48:31.097Z,24.17
2018-07-05T09:50:58.529Z,23.50
2018-07-05T09:53:26.293Z,24.80
2018-07-05T09:55:53.795Z,25.93
2018-07-05T09:58:21.442Z,27.00
2018-07-05T10:00:48.938Z,28.00
2018-07-05T10:03:17.020Z,27.20
2018-07-05T10:05:44.701Z,27.03
2018-07-05T10:08:12.417Z,24.73
2018-07-05T10:10:39.966Z,27.97
2018-07-05T10:13:07.475Z,28.03
2018-07-05T10:15:34.859Z,26.23
2018-07-05T10:18:02.561Z,27.97
2018-07-05T10:20:30.036Z,26.93
2018-07-05T10:22:57.352Z,23.87
2018-07-05T10:25:24.817Z,23.67
2018-07-05T10:27:52.149Z,23.60
2018-07-05T10:30:31.987Z,23.17
2018-07-05T10:33:11.792Z,22.90
2018-07-05T10:35:39.216Z,20.73
2018-07-05T10:38:06.757Z,21.83
2018-07-05T10:40:46.472Z,21.40
2018-07-05T10:43:26.250Z,21.90
2018-07-05T10:46:06.251Z,20.85
2018-07-05T10:48:46.321Z,20.23
2018-07-05T10:51:26.376Z,19.07
2018-07-05T10:54:06.219Z,19.77
2018-07-05T10:56:46.137Z,19.27
2018-07-05T10:59:25.928Z,19.45
2018-07-05T11:02:06.117Z,18.92
2018-07-05T11:04:46.025Z,19.60
2018-07-05T11:07:25.930Z,18.87
2018-07-05T11:10:05.911Z,18.98
2018-07-05T11:12:45.775Z,21.27
2018-07-05T11:15:25.760Z,19.15
2018-07-05T11:18:05.809Z,19.37
2018-07-05T11:20:46.317Z,19.60
2018-07-05T11:23:26.326Z,17.27
2018-07-05T11:26:06.450Z,19.47
2018-07-05T11:28:46.257Z,19.03
2018-07-05T11:31:26.015Z,18.33
2018-07-05T11:34:06.090Z,17.83
2018-07-05T11:36:45.915Z,17.07
2018-07-05T11:39:26.204Z,16.80
2018-07-05T11:42:05.980Z,17.57
2018-07-05T11:44:46.172Z,15.20
2018-07-05T11:47:25.994Z,16.37
2018-07-05T11:50:06.276Z,17.73
2018-07-05T11:52:46.131Z,16.50
2018-07-05T11:55:25.981Z,15.80
2018-07-05T11:58:05.804Z,15.47
2018-07-05T12:00:45.491Z,16.27
2018-07-05T12:03:25.302Z,16.00
2018-07-05T12:06:05.152Z,16.20
2018-07-05T12:08:44.892Z,14.47
2018-07-05T12:11:24.702Z,14.40
2018-07-05T12:14:04.508Z,11.60
2018-07-05T12:16:44.421Z,11.50
2018-07-05T12:19:24.506Z,11.23
2018-07-05T12:22:04.445Z,8.90
2018-07-05T12:24:44.030Z,6.87
2018-07-05T12:27:24.180Z,5.40
2018-07-05T12:30:03.995Z,5.10
2018-07-05T12:32:43.858Z,5.70
2018-07-05T12:35:23.613Z,5.33
2018-07-05T12:38:03.667Z,5.07
2018-07-05T12:40:43.636Z,4.87
2018-07-05T12:43:23.670Z,4.27
2018-07-05T12:46:03.465Z,4.03
2018-07-05T12:48:43.347Z,4.03
2018-07-05T12:51:23.458Z,3.97
2018-07-05T12:54:03.448Z,4.60
2018-07-05T12:56:43.898Z,5.37
2018-07-05T12:59:23.917Z,5.17
2018-07-05T13:02:03.949Z,5.07
2018-07-05T13:04:44.212Z,5.17
2018-07-05T13:07:24.629Z,5.90
2018-07-05T13:09:58.971Z,5.07
2018-07-05T13:12:39.193Z,5.83
2018-07-05T13:15:19.623Z,9.83
2018-07-05T13:18:00.105Z,6.50
2018-07-05T13:20:40.012Z,6.50
2018-07-05T13:23:20.434Z,5.37
2018-07-05T13:26:00.578Z,5.10
2018-07-05T13:28:40.807Z,5.30
2018-07-05T13:31:20.877Z,5.60
2018-07-05T13:34:01.147Z,7.63
2018-07-05T13:36:41.312Z,4.60
2018-07-05T13:39:21.501Z,4.30
2018-07-05T13:42:02.182Z,5.20
2018-07-05T13:44:42.154Z,4.60
2018-07-05T13:47:22.260Z,4.77
2018-07-05T13:50:02.499Z,3.87
2018-07-05T13:52:42.693Z,4.90
2018-07-05T13:55:22.701Z,3.37
2018-07-05T13:58:02.937Z,4.03
2018-07-05T14:00:43.234Z,4.53
2018-07-05T14:03:23.598Z,6.47
2018-07-05T14:06:03.505Z,4.30
2018-07-05T14:08:43.684Z,3.90
2018-07-05T14:11:26.204Z,5.57
2018-07-05T14:14:06.997Z,4.60
2018-07-05T14:16:47.532Z,6.37
2018-07-05T14:19:27.584Z,4.67
2018-07-05T14:22:07.410Z,4.30
2018-07-05T14:24:47.513Z,3.73
2018-07-05T14:27:27.072Z,3.67
2018-07-05T14:30:06.668Z,5.27
2018-07-05T14:32:46.634Z,4.20
2018-07-05T14:35:26.985Z,3.97
2018-07-05T14:38:06.714Z,4.07
2018-07-05T14:40:46.699Z,4.17
2018-07-05T14:43:26.619Z,3.87
2018-07-05T14:46:06.584Z,4.00
2018-07-05T14:48:46.189Z,4.33
2018-07-05T14:51:25.939Z,4.13
2018-07-05T14:54:05.725Z,4.50
2018-07-05T14:56:45.481Z,5.07
2018-07-05T14:59:25.161Z,4.70
2018-07-05T15:02:05.200Z,4.77
2018-07-05T15:04:45.024Z,3.67
2018-07-05T15:07:24.904Z,3.50
2018-07-05T15:10:04.750Z,3.50
2018-07-05T15:12:44.654Z,2.30
2018-07-05T15:15:24.349Z,2.73
2018-07-05T15:18:04.599Z,2.50
2018-07-05T15:20:44.326Z,2.70
2018-07-05T15:23:23.980Z,2.63
2018-07-05T15:26:03.644Z,2.70
2018-07-05T15:28:43.458Z,3.20
2018-07-05T15:31:23.145Z,2.37
2018-07-05T15:34:02.836Z,2.67
2018-07-05T15:36:42.609Z,3.43
2018-07-05T15:39:22.398Z,2.70
2018-07-05T15:42:02.045Z,2.80
2018-07-05T15:44:41.837Z,3.20
2018-07-05T15:47:21.526Z,2.77
2018-07-05T15:50:01.429Z,3.07
2018-07-05T15:52:41.107Z,2.93
2018-07-05T15:55:21.154Z,4.13
2018-07-05T15:58:00.912Z,3.53
2018-07-05T16:00:40.827Z,3.20
2018-07-05T16:03:20.514Z,2.93
2018-07-05T16:06:00.387Z,4.30
2018-07-05T16:08:40.115Z,3.53
2018-07-05T16:11:19.957Z,3.20
2018-07-05T16:13:59.607Z,8.37
2018-07-05T16:16:39.489Z,3.93
2018-07-05T16:19:19.310Z,3.10
2018-07-05T16:21:58.992Z,2.67
2018-07-05T16:24:38.696Z,2.67
2018-07-05T16:27:12.263Z,3.13
2018-07-05T16:29:51.985Z,2.90
2018-07-05T16:32:32.138Z,2.57
2018-07-05T16:35:11.950Z,2.70
2018-07-05T16:37:51.602Z,2.87
2018-07-05T16:40:31.379Z,2.60
2018-07-05T16:43:11.114Z,2.67
2018-07-05T16:45:50.955Z,2.40
2018-07-05T16:48:31.017Z,2.67
2018-07-05T16:51:10.984Z,2.50
2018-07-05T16:53:50.940Z,2.37
2018-07-05T16:56:30.506Z,2.40
2018-07-05T16:59:10.358Z,2.90
2018-07-05T17:01:50.199Z,3.10
2018-07-05T17:04:29.941Z,3.03
2018-07-05T17:07:10.007Z,2.43
2018-07-05T17:09:50.107Z,3.23
2018-07-05T17:12:29.837Z,2.67
2018-07-05T17:15:03.515Z,3.33
2018-07-05T17:17:43.428Z,2.87
2018-07-05T17:20:23.598Z,2.53
2018-07-05T17:23:03.370Z,2.60
2018-07-05T17:25:43.446Z,2.53
2018-07-05T17:28:23.488Z,2.90
2018-07-05T17:31:03.375Z,2.67
2018-07-05T17:33:43.233Z,2.60
2018-07-05T17:36:23.004Z,2.40
2018-07-05T17:39:03.344Z,2.77
2018-07-05T17:41:43.188Z,2.70
2018-07-05T17:44:22.841Z,2.50
2018-07-05T17:47:02.609Z,3.50
2018-07-05T17:49:42.810Z,3.20
2018-07-05T17:52:22.905Z,3.20
2018-07-05T17:55:02.760Z,2.93
2018-07-05T17:57:43.512Z,2.77
2018-07-05T18:00:23.338Z,3.07
2018-07-05T18:03:03.000Z,2.97
2018-07-05T18:05:42.823Z,2.77
2018-07-05T18:08:22.751Z,2.33
2018-07-05T18:11:02.584Z,2.47
2018-07-05T18:13:42.411Z,2.83
2018-07-05T18:16:22.140Z,2.30
2018-07-05T18:19:01.926Z,2.43
2018-07-05T18:21:41.965Z,2.40
2018-07-05T18:24:21.930Z,2.03
2018-07-05T18:27:01.725Z,2.20
2018-07-05T18:29:41.691Z,2.17
2018-07-05T18:32:22.065Z,2.67
2018-07-05T18:35:02.101Z,2.40
2018-07-05T18:37:41.936Z,3.43
2018-07-05T18:40:21.823Z,2.70
2018-07-05T18:43:01.949Z,2.50
2018-07-05T18:45:35.701Z,2.70
2018-07-05T18:48:15.533Z,4.07
2018-07-05T18:50:55.512Z,2.90
2018-07-05T18:53:35.287Z,2.90
2018-07-05T18:56:15.089Z,10.20
2018-07-05T18:58:54.701Z,3.40
2018-07-05T19:01:34.364Z,2.77
2018-07-05T19:04:14.145Z,3.37
2018-07-05T19:06:54.995Z,3.90
2018-07-05T19:09:34.847Z,2.90
2018-07-05T19:12:15.495Z,2.80
2018-07-05T19:14:55.454Z,2.50
2018-07-05T19:17:35.119Z,3.30
2018-07-05T19:20:15.059Z,3.03
2018-07-05T19:22:54.753Z,3.00
2018-07-05T19:25:35.045Z,3.83
2018-07-05T19:28:14.945Z,3.33
2018-07-05T19:30:54.767Z,3.33
2018-07-05T19:33:34.624Z,3.83
2018-07-05T19:36:14.421Z,2.97
2018-07-05T19:38:54.206Z,3.03
2018-07-05T19:41:34.139Z,3.67
2018-07-05T19:44:13.863Z,3.33
2018-07-05T19:46:53.728Z,3.53
2018-07-05T19:49:33.644Z,3.27
2018-07-05T19:52:13.383Z,3.40
2018-07-05T19:54:53.660Z,3.20
2018-07-05T19:57:33.420Z,2.87
2018-07-05T20:00:13.197Z,2.67
2018-07-05T20:02:52.788Z,4.60
2018-07-05T20:05:32.644Z,3.13
2018-07-05T20:08:12.231Z,2.27
2018-07-05T20:10:58.052Z,2.60
2018-07-05T20:13:38.457Z,3.20
2018-07-05T20:16:12.170Z,2.70
2018-07-05T20:18:51.989Z,1.87
2018-07-05T20:21:31.824Z,2.30
2018-07-05T20:24:11.510Z,2.37
2018-07-05T20:26:51.335Z,2.00
2018-07-05T20:29:31.186Z,2.60
2018-07-05T20:32:11.427Z,2.30
2018-07-05T20:34:44.996Z,2.73
2018-07-05T20:37:24.683Z,2.37
2018-07-05T20:40:04.351Z,1.90
2018-07-05T20:42:44.009Z,1.70
2018-07-05T20:45:23.756Z,1.57
2018-07-05T20:48:03.598Z,1.37
2018-07-05T20:50:43.669Z,1.90
2018-07-05T20:53:23.509Z,1.50
2018-07-05T20:56:03.253Z,2.20
2018-07-05T20:58:42.940Z,1.60
2018-07-05T21:01:22.758Z,1.87
2018-07-05T21:04:02.589Z,1.80
2018-07-05T21:06:42.739Z,1.77
2018-07-05T21:09:22.729Z,1.57
2018-07-05T21:12:02.690Z,1.80
2018-07-05T21:14:42.610Z,1.70
2018-07-05T21:17:22.445Z,1.77
2018-07-05T21:20:02.444Z,1.70
2018-07-05T21:22:42.185Z,2.23
2018-07-05T21:25:22.225Z,2.07
2018-07-05T21:28:01.972Z,1.33
2018-07-05T21:30:41.786Z,2.07
2018-07-05T21:33:21.540Z,1.50
2018-07-05T21:36:01.377Z,1.50
2018-07-05T21:38:41.098Z,1.50
2018-07-05T21:41:20.802Z,1.40
2018-07-05T21:44:00.638Z,1.40
2018-07-05T21:46:40.375Z,1.90
2018-07-05T21:49:20.097Z,1.70
2018-07-05T21:52:00.166Z,1.70
2018-07-05T21:54:33.690Z,1.50
2018-07-05T21:57:13.442Z,1.60
2018-07-05T21:59:53.174Z,1.50
2018-07-05T22:02:33.065Z,1.53
2018-07-05T22:05:13.269Z,1.33
2018-07-05T22:07:54.524Z,1.80
2018-07-05T22:10:34.319Z,1.60
2018-07-05T22:13:13.953Z,1.57
2018-07-05T22:15:53.781Z,1.87
2018-07-05T22:18:38.833Z,1.73
2018-07-05T22:21:19.328Z,1.50
2018-07-05T22:24:04.387Z,1.47
2018-07-05T22:26:46.260Z,1.67
2018-07-05T22:29:31.478Z,1.90
2018-07-05T22:32:11.454Z,1.70
2018-07-05T22:34:51.294Z,1.80
2018-07-05T22:37:30.996Z,1.83
2018-07-05T22:40:10.705Z,1.40
2018-07-05T22:42:50.514Z,1.90
2018-07-05T22:45:30.270Z,1.83
2018-07-05T22:48:10.033Z,2.00
2018-07-05T22:50:49.899Z,2.13
2018-07-05T22:53:30.004Z,2.20
2018-07-05T22:56:09.721Z,1.80
2018-07-05T22:58:49.476Z,2.00
2018-07-05T23:01:29.236Z,1.70
2018-07-05T23:04:09.023Z,2.13
2018-07-05T23:06:48.744Z,2.43
2018-07-05T23:09:28.652Z,2.40
2018-07-05T23:12:08.411Z,2.13
2018-07-05T23:14:48.230Z,2.27
2018-07-05T23:17:28.096Z,2.40
2018-07-05T23:20:07.737Z,2.43
2018-07-05T23:22:47.353Z,2.23
2018-07-05T23:25:27.013Z,2.20
2018-07-05T23:28:06.672Z,2.30
2018-07-05T23:30:46.301Z,2.50
2018-07-05T23:33:25.958Z,2.00
2018-07-05T23:36:05.771Z,2.30
2018-07-05T23:38:45.708Z,2.27
2018-07-05T23:41:25.705Z,2.30
2018-07-05T23:43:59.392Z,2.80
2018-07-05T23:46:39.275Z,2.70
2018-07-05T23:49:18.946Z,2.33
2018-07-05T23:51:58.667Z,2.40
2018-07-05T23:54:38.455Z,2.13
2018-07-05T23:57:18.185Z,3.20
2018-07-05T23:59:58.191Z,3.47
